Terminal Aerodrome Forecast
Issued by NWS Grand Forks, ND

Home | Current Version | Previous Version | Text Only | Print | Product List | Glossary On
Versions: 1 2 3 4 5 6 7 8 9 10 11 12
000
FTUS43 KFGF 190500
TAFGFK
TAF
KGFK 190522Z 1906/2006 14024G30KT P6SM OVC050
      TEMPO 1907/1909 -SHRA
     FM190900 16015KT P6SM FEW040
     FM191500 25018G24KT P6SM SCT025=

USA.gov is the U.S. government's official web portal to all federal, state and local government web resources and services.